createdAt,value
2017-10-16T00:02:09.981Z,7.30
2017-10-16T00:04:38.102Z,8.77
2017-10-16T00:07:07.743Z,9.57
2017-10-16T00:09:36.657Z,10.60
2017-10-16T00:12:04.809Z,8.13
2017-10-16T00:14:33.701Z,7.23
2017-10-16T00:17:02.595Z,6.80
2017-10-16T00:19:31.501Z,6.50
2017-10-16T00:21:59.620Z,6.90
2017-10-16T00:24:28.658Z,7.50
2017-10-16T00:26:56.791Z,7.47
2017-10-16T00:29:24.923Z,7.60
2017-10-16T00:31:53.076Z,8.33
2017-10-16T00:34:21.222Z,7.80
2017-10-16T00:36:49.343Z,7.70
2017-10-16T00:39:17.493Z,7.43
2017-10-16T00:41:45.621Z,7.43
2017-10-16T00:44:13.781Z,7.23
2017-10-16T00:46:41.898Z,6.83
2017-10-16T00:49:10.786Z,6.70
2017-10-16T00:51:39.676Z,6.13
2017-10-16T00:54:08.589Z,5.80
2017-10-16T00:56:37.724Z,5.80
2017-10-16T00:59:05.866Z,5.87
2017-10-16T01:01:33.999Z,5.50
2017-10-16T01:04:02.921Z,5.60
2017-10-16T01:06:31.041Z,5.80
2017-10-16T01:08:59.181Z,5.80
2017-10-16T01:11:27.306Z,5.80
2017-10-16T01:13:55.496Z,6.50
2017-10-16T01:16:23.636Z,6.77
2017-10-16T01:18:51.786Z,7.47
2017-10-16T01:21:19.905Z,8.13
2017-10-16T01:23:48.065Z,5.87
2017-10-16T01:26:16.954Z,6.40
2017-10-16T01:28:45.844Z,6.27
2017-10-16T01:31:14.752Z,7.97
2017-10-16T01:33:42.889Z,7.20
2017-10-16T01:36:11.030Z,5.67
2017-10-16T01:38:39.143Z,5.20
2017-10-16T01:41:07.303Z,3.77
2017-10-16T01:43:35.437Z,4.20
2017-10-16T01:46:03.578Z,4.00
2017-10-16T01:48:32.469Z,4.23
2017-10-16T01:51:01.372Z,6.03
2017-10-16T01:53:29.513Z,6.17
2017-10-16T01:55:57.656Z,7.07
2017-10-16T01:58:25.816Z,7.30
2017-10-16T02:00:54.884Z,7.17
2017-10-16T02:03:23.021Z,5.90
2017-10-16T02:05:51.137Z,6.33
2017-10-16T02:08:19.275Z,6.27
2017-10-16T02:10:48.162Z,6.50
2017-10-16T02:13:17.077Z,7.17
2017-10-16T02:15:45.225Z,7.47
2017-10-16T02:18:13.344Z,7.33
2017-10-16T02:20:41.485Z,5.93
2017-10-16T02:23:10.367Z,5.37
2017-10-16T02:25:39.817Z,5.87
2017-10-16T02:28:07.940Z,6.60
2017-10-16T02:30:36.836Z,6.33
2017-10-16T02:33:05.733Z,6.63
2017-10-16T02:35:34.636Z,6.30
2017-10-16T02:38:02.764Z,8.10
2017-10-16T02:40:30.897Z,7.43
2017-10-16T02:42:59.045Z,7.73
2017-10-16T02:45:27.220Z,8.17
2017-10-16T02:47:56.112Z,10.30
2017-10-16T02:50:24.228Z,9.80
2017-10-16T02:52:52.387Z,8.20
2017-10-16T02:55:20.509Z,8.13
2017-10-16T02:57:48.664Z,7.03
2017-10-16T03:00:16.784Z,5.70
2017-10-16T03:02:44.921Z,5.20
2017-10-16T03:05:13.829Z,6.07
2017-10-16T03:07:42.700Z,3.80
2017-10-16T03:10:11.610Z,4.57
2017-10-16T03:12:40.485Z,4.10
2017-10-16T03:15:09.409Z,6.80
2017-10-16T03:17:37.545Z,5.33
2017-10-16T03:20:05.657Z,4.77
2017-10-16T03:22:34.788Z,5.47
2017-10-16T03:25:02.973Z,5.93
2017-10-16T03:27:31.108Z,6.50
2017-10-16T03:29:59.227Z,6.43
2017-10-16T03:32:28.110Z,6.23
2017-10-16T03:34:57.174Z,6.20
2017-10-16T03:37:26.058Z,5.20
2017-10-16T03:39:54.969Z,7.23
2017-10-16T03:42:23.096Z,7.83
2017-10-16T03:44:51.264Z,9.53
2017-10-16T03:47:19.443Z,11.47
2017-10-16T03:49:47.577Z,10.20
2017-10-16T03:52:16.471Z,9.97
2017-10-16T03:54:45.396Z,8.37
2017-10-16T03:57:13.518Z,4.80
2017-10-16T03:59:41.656Z,5.40
2017-10-16T04:02:09.779Z,6.00
2017-10-16T04:04:38.870Z,5.23
2017-10-16T04:07:07.025Z,6.40
2017-10-16T04:09:35.160Z,5.63
2017-10-16T04:12:04.040Z,6.83
2017-10-16T04:14:32.177Z,6.70
2017-10-16T04:17:01.125Z,8.07
2017-10-16T04:19:29.287Z,5.23
2017-10-16T04:21:57.405Z,6.67
2017-10-16T04:24:25.553Z,7.00
2017-10-16T04:26:53.685Z,6.10
2017-10-16T04:29:21.812Z,8.10
2017-10-16T04:31:49.973Z,7.63
2017-10-16T04:34:18.095Z,6.60
2017-10-16T04:36:46.245Z,7.20
2017-10-16T04:39:18.952Z,8.20
2017-10-16T04:41:48.154Z,8.57
2017-10-16T04:44:16.297Z,7.50
2017-10-16T04:46:45.230Z,8.63
2017-10-16T04:49:13.362Z,5.87
2017-10-16T04:51:41.477Z,7.63
2017-10-16T04:54:09.633Z,6.20
2017-10-16T04:56:38.582Z,6.67
2017-10-16T04:59:06.713Z,7.00
2017-10-16T05:01:34.842Z,6.30
2017-10-16T05:04:02.984Z,6.80
2017-10-16T05:06:31.382Z,8.20
2017-10-16T05:09:00.305Z,6.80
2017-10-16T05:11:29.234Z,7.63
2017-10-16T05:13:57.341Z,8.73
2017-10-16T05:16:25.472Z,6.43
2017-10-16T05:18:53.631Z,6.30
2017-10-16T05:21:21.763Z,7.13
2017-10-16T05:23:49.901Z,7.73
2017-10-16T05:26:18.043Z,8.43
2017-10-16T05:28:46.993Z,10.30
2017-10-16T05:31:15.139Z,10.97
2017-10-16T05:33:43.269Z,7.90
2017-10-16T05:36:13.048Z,9.00
2017-10-16T05:38:41.173Z,9.47
2017-10-16T05:41:09.305Z,8.90
2017-10-16T05:43:37.440Z,8.23
2017-10-16T05:46:06.350Z,7.50
2017-10-16T05:48:35.243Z,7.80
2017-10-16T05:51:03.392Z,8.47
2017-10-16T05:53:32.298Z,8.33
2017-10-16T05:56:01.189Z,9.93
2017-10-16T05:58:30.076Z,8.00
2017-10-16T06:00:58.979Z,9.00
2017-10-16T06:03:27.133Z,10.20
2017-10-16T06:05:56.030Z,10.00
2017-10-16T06:08:24.936Z,9.20
2017-10-16T06:10:53.080Z,8.77
2017-10-16T06:13:21.211Z,10.50
2017-10-16T06:15:49.357Z,9.37
2017-10-16T06:18:17.494Z,10.63
2017-10-16T06:20:45.659Z,10.53
2017-10-16T06:23:13.780Z,10.27
2017-10-16T06:25:41.928Z,10.47
2017-10-16T06:28:10.117Z,8.60
2017-10-16T06:30:38.251Z,7.90
2017-10-16T06:33:06.381Z,7.90
2017-10-16T06:35:35.309Z,9.10
2017-10-16T06:38:03.493Z,10.03
2017-10-16T06:40:31.646Z,8.30
2017-10-16T06:42:59.799Z,8.50
2017-10-16T06:45:28.697Z,8.10
2017-10-16T06:47:57.595Z,9.77
2017-10-16T06:50:25.813Z,10.70
2017-10-16T06:52:53.955Z,11.60
2017-10-16T06:55:22.096Z,13.37
2017-10-16T06:57:51.013Z,14.80
2017-10-16T07:00:19.914Z,15.30
2017-10-16T07:02:48.040Z,14.83
2017-10-16T07:05:16.940Z,13.63
2017-10-16T07:07:45.906Z,14.17
2017-10-16T07:10:14.022Z,14.43
2017-10-16T07:12:42.184Z,13.80
2017-10-16T07:15:11.094Z,13.40
2017-10-16T07:17:39.244Z,15.27
2017-10-16T07:20:08.163Z,15.13
2017-10-16T07:22:36.323Z,14.27
2017-10-16T07:25:04.461Z,13.23
2017-10-16T07:27:32.617Z,14.20
2017-10-16T07:30:00.776Z,15.50
2017-10-16T07:32:28.904Z,15.17
2017-10-16T07:34:57.801Z,16.20
2017-10-16T07:37:25.935Z,14.87
2017-10-16T07:39:54.087Z,14.50
2017-10-16T07:42:22.224Z,16.07
2017-10-16T07:44:50.384Z,15.10
2017-10-16T07:47:19.312Z,14.63
2017-10-16T07:49:47.469Z,15.00
2017-10-16T07:52:16.371Z,14.57
2017-10-16T07:54:44.525Z,16.20
2017-10-16T07:57:12.684Z,17.60
2017-10-16T07:59:40.900Z,31.97
2017-10-16T08:02:09.029Z,25.73
2017-10-16T08:04:37.173Z,29.27
2017-10-16T08:07:05.341Z,31.23
2017-10-16T08:09:33.529Z,22.00
2017-10-16T08:12:01.707Z,18.13
2017-10-16T08:14:29.831Z,19.10
2017-10-16T08:16:58.010Z,15.97
2017-10-16T08:19:26.161Z,15.90
2017-10-16T08:21:54.297Z,15.37
2017-10-16T08:24:23.213Z,14.57
2017-10-16T08:26:51.372Z,14.83
2017-10-16T08:29:21.059Z,14.93
2017-10-16T08:31:49.204Z,14.87
2017-10-16T08:34:17.339Z,13.33
2017-10-16T08:36:45.487Z,11.93
2017-10-16T08:39:14.391Z,11.70
2017-10-16T08:41:43.291Z,19.07
2017-10-16T08:44:12.193Z,17.50
2017-10-16T08:46:40.340Z,15.30
2017-10-16T08:49:09.277Z,12.80
2017-10-16T08:51:37.436Z,11.83
2017-10-16T08:54:05.633Z,14.47
2017-10-16T08:56:33.758Z,11.77
2017-10-16T08:59:01.897Z,12.90
2017-10-16T09:01:30.024Z,11.30
2017-10-16T09:03:58.217Z,11.70
2017-10-16T09:06:26.400Z,13.50
2017-10-16T09:08:54.535Z,11.43
2017-10-16T09:11:23.572Z,11.20
2017-10-16T09:13:51.709Z,11.73
2017-10-16T09:16:20.622Z,12.50
2017-10-16T09:18:48.789Z,10.60
2017-10-16T09:21:16.959Z,12.37
2017-10-16T09:23:45.099Z,10.50
2017-10-16T09:26:13.237Z,10.70
2017-10-16T09:28:41.378Z,11.07
2017-10-16T09:31:09.534Z,10.20
2017-10-16T09:33:38.436Z,9.33
2017-10-16T09:36:06.576Z,9.53
2017-10-16T09:38:34.719Z,10.57
2017-10-16T09:41:03.714Z,9.77
2017-10-16T09:43:31.876Z,10.27
2017-10-16T09:46:00.016Z,10.20
2017-10-16T09:48:28.913Z,9.13
2017-10-16T09:50:57.262Z,9.70
2017-10-16T09:53:25.405Z,9.00
2017-10-16T09:55:53.542Z,8.83
2017-10-16T09:58:21.681Z,10.17
2017-10-16T10:00:49.816Z,10.70
2017-10-16T10:03:17.983Z,9.23
2017-10-16T10:05:46.145Z,10.37
2017-10-16T10:08:14.267Z,9.10
2017-10-16T10:10:42.424Z,10.10
2017-10-16T10:13:10.568Z,10.93
2017-10-16T10:15:38.713Z,9.73
2017-10-16T10:18:06.871Z,10.03
2017-10-16T10:20:35.776Z,9.97
2017-10-16T10:23:04.726Z,10.00
2017-10-16T10:25:32.839Z,8.70
2017-10-16T10:28:02.733Z,10.33
2017-10-16T10:30:31.640Z,9.50
2017-10-16T10:33:01.489Z,9.00
2017-10-16T10:35:29.612Z,9.70
2017-10-16T10:37:58.552Z,9.17
2017-10-16T10:40:27.467Z,9.60
2017-10-16T10:42:55.633Z,9.43
2017-10-16T10:45:25.268Z,9.40
2017-10-16T10:47:54.167Z,9.60
2017-10-16T10:50:23.094Z,10.77
2017-10-16T10:52:51.265Z,9.07
2017-10-16T10:55:19.405Z,8.60
2017-10-16T10:57:48.317Z,9.57
2017-10-16T11:00:16.476Z,9.20
2017-10-16T11:02:45.374Z,9.13
2017-10-16T11:05:14.102Z,9.70
2017-10-16T11:07:42.227Z,9.33
2017-10-16T11:10:10.432Z,8.53
2017-10-16T11:12:38.574Z,9.03
2017-10-16T11:15:07.526Z,9.70
2017-10-16T11:17:35.652Z,8.83
2017-10-16T11:20:03.794Z,9.37
2017-10-16T11:22:32.704Z,8.63
2017-10-16T11:25:00.857Z,8.80
2017-10-16T11:27:29.004Z,9.30
2017-10-16T11:29:57.975Z,9.67
2017-10-16T11:32:26.124Z,9.30
2017-10-16T11:34:54.285Z,9.80
2017-10-16T11:37:23.238Z,9.70
2017-10-16T11:39:51.375Z,10.27
2017-10-16T11:42:19.503Z,9.27
2017-10-16T11:44:48.816Z,8.93
2017-10-16T11:47:16.957Z,10.17
2017-10-16T11:49:45.155Z,10.70
2017-10-16T11:52:13.342Z,9.50
2017-10-16T11:54:41.474Z,8.23
2017-10-16T11:57:09.624Z,8.23
2017-10-16T11:59:38.338Z,7.67
2017-10-16T12:02:07.329Z,8.10
2017-10-16T12:04:35.476Z,8.43
2017-10-16T12:07:04.381Z,8.27
2017-10-16T12:09:32.508Z,8.60
2017-10-16T12:12:01.727Z,8.90
2017-10-16T12:14:31.562Z,9.00
2017-10-16T12:16:59.728Z,7.77
2017-10-16T12:19:28.654Z,8.40
2017-10-16T12:21:56.771Z,8.23
2017-10-16T12:24:25.681Z,7.30
2017-10-16T12:26:53.833Z,7.83
2017-10-16T12:29:24.582Z,9.50
2017-10-16T12:31:53.493Z,7.90
2017-10-16T12:34:21.647Z,7.57
2017-10-16T12:36:50.622Z,7.97
2017-10-16T12:39:19.317Z,7.73
2017-10-16T12:41:47.500Z,8.10
2017-10-16T12:44:15.659Z,8.03
2017-10-16T12:46:43.770Z,7.20
2017-10-16T12:49:12.681Z,8.37
2017-10-16T12:51:40.824Z,7.60
2017-10-16T12:54:10.666Z,8.10
2017-10-16T12:56:39.597Z,7.27
2017-10-16T12:59:08.542Z,7.53
2017-10-16T13:01:37.452Z,8.00
2017-10-16T13:04:05.586Z,7.50
2017-10-16T13:06:33.733Z,7.37
2017-10-16T13:09:01.853Z,8.10
2017-10-16T13:11:30.754Z,6.90
2017-10-16T13:13:59.709Z,7.40
2017-10-16T13:16:28.744Z,7.10
2017-10-16T13:18:57.853Z,7.80
2017-10-16T13:21:25.997Z,6.93
2017-10-16T13:23:54.138Z,6.63
2017-10-16T13:26:27.905Z,8.17
2017-10-16T13:29:01.706Z,7.17
2017-10-16T13:31:36.151Z,8.03
2017-10-16T13:34:09.957Z,7.93
2017-10-16T13:36:44.339Z,8.20
2017-10-16T13:39:18.061Z,8.60
2017-10-16T13:41:51.832Z,7.20
2017-10-16T13:44:25.801Z,7.73
2017-10-16T13:46:59.712Z,7.90
2017-10-16T13:49:35.057Z,7.50
2017-10-16T13:52:08.825Z,7.00
2017-10-16T13:54:42.688Z,9.20
2017-10-16T13:57:16.642Z,8.53
2017-10-16T13:59:52.441Z,8.57
2017-10-16T14:02:26.262Z,6.97
2017-10-16T14:05:00.812Z,7.50
2017-10-16T14:07:34.662Z,8.00
2017-10-16T14:10:08.586Z,7.80
2017-10-16T14:12:42.412Z,7.17
2017-10-16T14:15:12.322Z,7.90
2017-10-16T14:17:41.225Z,7.90
2017-10-16T14:20:09.400Z,7.90
2017-10-16T14:22:37.544Z,7.67
2017-10-16T14:25:06.452Z,8.63
2017-10-16T14:27:35.380Z,14.03
2017-10-16T14:30:03.512Z,12.53
2017-10-16T14:32:31.706Z,8.80
2017-10-16T14:35:00.080Z,8.27
2017-10-16T14:37:28.238Z,7.45
2017-10-16T14:39:57.296Z,7.65
2017-10-16T14:42:26.952Z,7.15
2017-10-16T14:44:55.586Z,7.32
2017-10-16T14:47:23.724Z,7.70
2017-10-16T14:49:51.858Z,6.95
2017-10-16T14:52:20.748Z,7.68
2017-10-16T14:54:49.683Z,7.07
2017-10-16T14:57:17.811Z,7.72
2017-10-16T14:59:46.859Z,7.45
2017-10-16T15:02:21.790Z,7.47
2017-10-16T15:04:49.974Z,7.32
2017-10-16T15:07:18.090Z,6.72
2017-10-16T15:09:46.257Z,7.45
2017-10-16T15:12:15.173Z,8.93
2017-10-16T15:14:43.339Z,8.23
2017-10-16T15:17:11.518Z,8.52
2017-10-16T15:19:39.651Z,10.05
2017-10-16T15:22:08.204Z,10.23
2017-10-16T15:24:36.341Z,9.38
2017-10-16T15:27:04.498Z,9.15
2017-10-16T15:29:34.117Z,10.63
2017-10-16T15:32:02.300Z,10.40
2017-10-16T15:34:30.424Z,10.43
2017-10-16T15:36:59.724Z,11.00
2017-10-16T15:39:28.659Z,9.97
2017-10-16T15:42:01.865Z,10.40
2017-10-16T15:44:30.937Z,10.17
2017-10-16T15:46:59.108Z,9.23
2017-10-16T15:49:27.316Z,9.20
2017-10-16T15:51:55.477Z,10.07
2017-10-16T15:54:23.636Z,12.37
2017-10-16T15:56:51.782Z,11.10
2017-10-16T15:59:20.700Z,10.60
2017-10-16T16:01:48.849Z,9.20
2017-10-16T16:04:17.875Z,10.83
2017-10-16T16:06:46.020Z,10.73
2017-10-16T16:09:14.144Z,9.63
2017-10-16T16:11:42.326Z,10.30
2017-10-16T16:14:10.474Z,10.97
2017-10-16T16:16:38.633Z,11.50
2017-10-16T16:19:06.790Z,11.70
2017-10-16T16:21:35.717Z,11.20
2017-10-16T16:24:03.877Z,11.17
2017-10-16T16:26:32.028Z,11.63
2017-10-16T16:29:00.174Z,11.30
2017-10-16T16:31:28.357Z,11.03
2017-10-16T16:33:56.517Z,11.23
2017-10-16T16:36:26.160Z,13.40
2017-10-16T16:38:54.314Z,13.77
2017-10-16T16:41:24.074Z,10.90
2017-10-16T16:43:52.883Z,11.10
2017-10-16T16:46:21.040Z,11.83
2017-10-16T16:48:49.196Z,12.87
2017-10-16T16:51:17.329Z,11.13
2017-10-16T16:53:46.258Z,11.00
2017-10-16T16:56:15.225Z,11.73
2017-10-16T16:58:44.168Z,11.10
2017-10-16T17:01:12.332Z,12.33
2017-10-16T17:03:40.499Z,12.43
2017-10-16T17:06:08.665Z,10.83
2017-10-16T17:08:36.816Z,10.63
2017-10-16T17:11:04.963Z,13.10
2017-10-16T17:13:33.092Z,12.93
2017-10-16T17:16:01.272Z,12.20
2017-10-16T17:18:29.431Z,12.27
2017-10-16T17:20:57.571Z,12.07
2017-10-16T17:23:26.491Z,11.47
2017-10-16T17:25:54.664Z,12.40
2017-10-16T17:28:22.891Z,12.90
2017-10-16T17:30:51.067Z,12.30
2017-10-16T17:33:19.239Z,11.50
2017-10-16T17:35:47.381Z,12.07
2017-10-16T17:38:15.547Z,13.30
2017-10-16T17:40:43.688Z,12.63
2017-10-16T17:43:12.613Z,11.87
2017-10-16T17:45:40.852Z,12.40
2017-10-16T17:48:09.769Z,11.87
2017-10-16T17:50:39.259Z,11.77
2017-10-16T17:53:09.330Z,12.83
2017-10-16T17:55:37.481Z,12.13
2017-10-16T17:58:05.626Z,13.23
2017-10-16T18:00:33.736Z,12.70
2017-10-16T18:03:01.885Z,13.70
2017-10-16T18:05:30.050Z,12.50
2017-10-16T18:07:58.971Z,13.03
2017-10-16T18:10:27.131Z,14.43
2017-10-16T18:12:55.263Z,14.47
2017-10-16T18:15:23.426Z,12.13
2017-10-16T18:17:51.573Z,11.83
2017-10-16T18:20:19.767Z,13.20
2017-10-16T18:22:47.927Z,12.23
2017-10-16T18:25:16.110Z,11.77
2017-10-16T18:27:44.280Z,11.40
2017-10-16T18:30:12.428Z,12.90
2017-10-16T18:32:40.685Z,13.43
2017-10-16T18:35:14.576Z,14.07
2017-10-16T18:37:48.300Z,11.47
2017-10-16T18:40:22.130Z,11.53
2017-10-16T18:42:55.950Z,12.87
2017-10-16T18:45:31.418Z,12.43
2017-10-16T18:48:05.323Z,19.20
2017-10-16T18:50:39.157Z,12.97
2017-10-16T18:53:13.718Z,11.80
2017-10-16T18:55:47.313Z,11.27
2017-10-16T18:58:21.048Z,10.03
2017-10-16T19:00:55.479Z,11.20
2017-10-16T19:03:29.288Z,12.30
2017-10-16T19:06:03.019Z,12.60
2017-10-16T19:08:36.839Z,11.27
2017-10-16T19:11:10.604Z,14.30
2017-10-16T19:13:45.291Z,14.93
2017-10-16T19:16:19.792Z,14.37
2017-10-16T19:18:54.298Z,14.53
2017-10-16T19:21:27.949Z,14.40
2017-10-16T19:24:01.777Z,15.10
2017-10-16T19:26:35.539Z,13.73
2017-10-16T19:29:09.493Z,13.80
2017-10-16T19:31:43.538Z,14.60
2017-10-16T19:34:17.273Z,14.90
2017-10-16T19:36:51.203Z,14.50
2017-10-16T19:39:24.994Z,16.37
2017-10-16T19:41:58.742Z,15.77
2017-10-16T19:44:32.503Z,16.33
2017-10-16T19:47:06.390Z,16.47
2017-10-16T19:49:40.160Z,18.80
2017-10-16T19:52:14.026Z,18.50
2017-10-16T19:54:47.722Z,22.33
2017-10-16T19:57:23.594Z,21.80
2017-10-16T19:59:57.270Z,16.50
2017-10-16T20:02:31.023Z,19.90
2017-10-16T20:05:05.582Z,17.10
2017-10-16T20:07:40.045Z,18.93
2017-10-16T20:10:13.839Z,16.47
2017-10-16T20:12:47.605Z,17.93
2017-10-16T20:15:21.396Z,15.90
2017-10-16T20:17:55.223Z,16.37
2017-10-16T20:20:29.855Z,16.83
2017-10-16T20:23:05.071Z,16.27
2017-10-16T20:25:39.144Z,15.33
2017-10-16T20:28:13.894Z,16.13
2017-10-16T20:30:48.462Z,15.60
2017-10-16T20:33:23.244Z,13.53
2017-10-16T20:35:57.816Z,14.63
2017-10-16T20:38:31.775Z,16.03
2017-10-16T20:41:06.318Z,15.47
2017-10-16T20:43:40.017Z,14.23
2017-10-16T20:46:13.813Z,14.70
2017-10-16T20:48:49.165Z,15.17
2017-10-16T20:51:23.764Z,14.03
2017-10-16T20:53:57.649Z,14.33
2017-10-16T20:56:31.959Z,16.03
2017-10-16T20:59:06.330Z,15.73
2017-10-16T21:01:40.034Z,15.40
2017-10-16T21:04:13.887Z,14.57
2017-10-16T21:06:47.618Z,15.40
2017-10-16T21:09:22.171Z,14.20
2017-10-16T21:11:56.585Z,15.40
2017-10-16T21:14:30.334Z,14.03
2017-10-16T21:17:04.273Z,15.30
2017-10-16T21:19:38.025Z,13.03
2017-10-16T21:22:11.925Z,11.60
2017-10-16T21:24:46.649Z,12.13
2017-10-16T21:27:20.560Z,12.17
2017-10-16T21:29:54.368Z,12.33
2017-10-16T21:32:28.078Z,12.77
2017-10-16T21:35:01.724Z,12.60
2017-10-16T21:37:35.437Z,13.50
2017-10-16T21:40:09.997Z,12.30
2017-10-16T21:42:43.603Z,13.70
2017-10-16T21:45:18.166Z,14.23
2017-10-16T21:47:52.045Z,14.03
2017-10-16T21:50:25.927Z,13.90
2017-10-16T21:52:59.654Z,13.83
2017-10-16T21:55:33.455Z,14.33
2017-10-16T21:58:07.244Z,15.80
2017-10-16T22:00:40.997Z,14.50
2017-10-16T22:03:15.573Z,13.73
2017-10-16T22:05:50.053Z,14.13
2017-10-16T22:08:23.890Z,13.40
2017-10-16T22:10:57.653Z,14.53
2017-10-16T22:13:31.355Z,14.80
2017-10-16T22:16:05.053Z,13.80
2017-10-16T22:18:38.717Z,12.33
2017-10-16T22:21:12.562Z,11.60
2017-10-16T22:23:46.418Z,14.20
2017-10-16T22:26:20.224Z,13.97
2017-10-16T22:28:54.069Z,13.90
2017-10-16T22:31:28.616Z,14.43
2017-10-16T22:34:02.382Z,15.37
2017-10-16T22:36:36.097Z,17.40
2017-10-16T22:39:09.946Z,17.10
2017-10-16T22:41:43.680Z,16.77
2017-10-16T22:44:17.517Z,16.90
2017-10-16T22:46:51.953Z,15.87
2017-10-16T22:49:25.626Z,15.53
2017-10-16T22:51:59.377Z,15.97
2017-10-16T22:54:38.106Z,15.87
2017-10-16T22:57:11.938Z,16.20
2017-10-16T22:59:45.721Z,14.50
2017-10-16T23:02:19.590Z,12.00
2017-10-16T23:04:54.131Z,12.50
2017-10-16T23:07:27.890Z,9.60
2017-10-16T23:10:01.637Z,9.90
2017-10-16T23:12:35.473Z,9.77
2017-10-16T23:15:09.277Z,10.30
2017-10-16T23:17:43.924Z,9.90
2017-10-16T23:20:17.625Z,11.53
2017-10-16T23:22:51.471Z,11.23
2017-10-16T23:25:25.376Z,10.50
2017-10-16T23:27:59.257Z,8.10
2017-10-16T23:30:33.932Z,8.87
2017-10-16T23:33:07.637Z,11.17
2017-10-16T23:35:41.433Z,6.10
2017-10-16T23:38:15.216Z,7.67
2017-10-16T23:40:49.928Z,6.93
2017-10-16T23:43:23.669Z,6.10
2017-10-16T23:45:57.443Z,5.20
2017-10-16T23:48:31.061Z,6.80
2017-10-16T23:51:05.013Z,8.67
2017-10-16T23:53:38.743Z,8.87
2017-10-16T23:56:13.228Z,8.60
2017-10-16T23:58:46.995Z,7.10
